Yverdon-les-Bains, Switzerland

2:37 AM CET on March 02, 2015 (GMT +0100)
Belp | Change Station
CLOSE
Current Station
Airport
Location: Bern-Belp,
Elevation: 1673 ft
Nearby Weather Stations

Elev 1673 ft 46.91 °N, 7.50 °E | Updated 17 minutes ago

Mostly Cloudy
Mostly Cloudy
50 °F
Feels Like 50 °F
N
8
Wind Variable Wind from SW

Today
High -- | Low -- °F
--% Chance of Precip.
Yesterday
High -- | Low -- °F
Precip. -- in
7:12 AM 6:20 PM
Waxing Gibbous, 88% visible
Pressure 29.83 in
Visibility 6.2 miles
Clouds Few 3600 ft
Mostly Cloudy 4100 ft
Mostly Cloudy 4600 ft
Dew Point 43 °F
Humidity 76%
Rainfall 0.00 in
Snow Depth Not available.
UV 0 out of 12
Pollen Not available.
Air Quality Not available.
Flu Activity Not available.
METAR LSZB 020120Z AUTO 22007KT 170V320 9999 FEW036 BKN041 BKN046 10/06 Q1010

More Conditions Fewer Conditions

Pressure 29.83 in
Visibility 6.2 miles
Clouds Few 3600 ft
Mostly Cloudy 4100 ft
Mostly Cloudy 4600 ft
Dew Point 43 °F
Humidity 76%
Rainfall 0.00 in
Snow Depth Not available.
UV 0 out of 12
Pollen Not available.
Air Quality Not available.
Flu Activity Not available.
METAR LSZB 020120Z AUTO 22007KT 170V320 9999 FEW036 BKN041 BKN046 10/06 Q1010

More Conditions Fewer Conditions

10-Day Weather Forecast

Almanac

Astronomy

Mar. 02, 2015 Rise Set
Actual Time
Civil Twilight
Nautical Twilight
Astronomical Twilight
Moon
Length of Visible Light
Length of Day
Tomorrow will be .
, % of the Moon is Illuminated

Today's Extremes

Country Highs Country Lows

Community

WunderPhotos

Upload Photos

1,801,680 photos uploaded!

WunderBlogs® & News

Nearby

Air Quality

  Air Quality AQ Index Pollutant
Not available.

Snow Depth

Station Depth Elevation

Earthquake Activity

City Distance Mag. Time & Date
Minimum magnitude displayed is 2.5.

Coastal Water Temperatures

Place Temperature

Nearby Weather Stations